METAR Data
IDs: Format: Raw Decoded Include TAF

Data at: 1405 UTC 14 Dec 2019

KMVL 141354Z AUTO 35007KT 6SM -RA BR FEW020 OVC040 03/03 A2961 RMK AO2 SLP035 P0008 T00330028
KMVL 141347Z AUTO 36003KT 6SM -RA BR SCT020 BKN037 OVC055 04/03 A2962 RMK AO2 PRESFR P0008 T00390033
KMVL 141254Z AUTO 35005KT 5SM RA BR OVC019 03/02 A2968 RMK AO2 PRESFR SLP059 P0010 T00280022
KMVL 141154Z AUTO 02006KT 7SM -RA BKN017 OVC027 02/02 A2974 RMK AO2 PRESFR SLP078 P0006 60017 70021 I6000 T00220017 10022 20011 56043
KMVL 141150Z AUTO 36005KT 4SM -RA BR BKN017 OVC029 02/01 A2974 RMK AO2 PRESFR P0005
KMVL 141122Z AUTO 34004KT 4SM -RA BR FEW014 OVC041 01/01 A2977 RMK AO2 P0003 T00110006
KMVL 141113Z AUTO 03003KT 2 1/2SM -RA BR SCT015 OVC040 01/01 A2978 RMK AO2 VIS 1 3/4V5 P0002 T00110006
KMVL 141054Z AUTO 00000KT 4SM -RA BR OVC017 01/01 A2980 RMK AO2 PRESFR SLP100 P0006 T00110006
KMVL 141040Z AUTO 00000KT 3SM -RA BR BKN017 OVC029 01/01 A2982 RMK AO2 P0005 T00110006
KMVL 141035Z AUTO 00000KT 1 3/4SM -RA BR BKN019 OVC034 01/01 A2983 RMK AO2 P0004 T00110006
KMVL 141026Z AUTO 00000KT 1 3/4SM -RA BR SCT019 OVC036 01/01 A2983 RMK AO2 PRESFR P0004 T00110006
KMVL 141019Z AUTO 00000KT 3SM -RA BR FEW003 SCT019 OVC036 01/01 A2984 RMK AO2 PRESFR P0003 T00110006
KMVL 141005Z AUTO 00000KT 1 3/4SM -RA BR FEW003 SCT021 OVC039 01/01 A2986 RMK AO2 P0001 T00110006
KMVL 140954Z AUTO 00000KT 3SM -RA BR FEW003 SCT019 OVC037 01/01 A2987 RMK AO2 SLP122 P0002 I1000 T00110006
KMVL 140951Z AUTO 00000KT 3SM -RA BR FEW003 SCT019 OVC034 01/01 A2987 RMK AO2 P0002 I1000
KMVL 140948Z AUTO 00000KT 2SM -RA BR SCT019 OVC032 01/01 A2987 RMK AO2 P0002 I1000
KMVL 140941Z AUTO 00000KT 1 1/2SM -RA BR SCT019 BKN029 OVC034 01/01 A2988 RMK AO2 P0001 I1000 T00110006
KMVL 140936Z AUTO 36003KT 2SM -RA BR SCT020 OVC031 01/01 A2988 RMK AO2 P0001 I1000 T00110006
KMVL 140921Z AUTO 00000KT 5SM -RA BR SCT020 BKN025 OVC029 01/01 A2989 RMK AO2 P0001 I1000 T00110006
KMVL 140912Z AUTO 00000KT 2SM -RA BR BKN020 BKN031 OVC065 01/01 A2990 RMK AO2 P0001 I1000 T00110006
KMVL 140854Z AUTO 00000KT 1 1/4SM -RA BR FEW009 SCT019 OVC060 01/01 A2992 RMK AO2 SLP139 P0001 60003 I3000 T00110006 58045
KMVL 140851Z AUTO 00000KT 1 1/4SM -RA BR FEW009 SCT019 OVC060 01/01 A2992 RMK AO2 P0001
KMVL 140846Z AUTO 00000KT 1 3/4SM -RA BR BKN019 OVC060 01/01 A2992 RMK AO2 P0001 T00110006
KMVL 140754Z AUTO 33003KT 10SM -RA OVC018 01/01 A2997 RMK AO2 RAE22B48 SLP159 P0001 T00110006
KMVL 140716Z AUTO 00000KT 10SM -RA FEW008 OVC018 01/01 A3001 RMK AO2 P0001 T00110006
KMVL 140654Z AUTO 14004KT 7SM -RA FEW014 OVC019 02/01 A3002 RMK AO2 UPB04E05B43E46 SLP175 P0001 I1000 T00170011
KMVL 140629Z AUTO 16003KT 8SM -RA SCT010 BKN019 OVC023 02/01 A3003 RMK AO2 UPB04E05 P0001 T00170006
KMVL 140554Z AUTO 14004KT 8SM -RA BKN010 OVC020 02/01 A3005 RMK AO2 UPE44RAB12E22B36 CIG 006V013 SLP185 P0002 60004 I6000 T00170006 10017 20006 58037
KMVL 140546Z AUTO 16004KT 9SM -RA BKN009 OVC020 02/01 A3006 RMK AO2 UPE44RAB12E22B36 CIG 006V013 P0002 T00170006
KMVL 140528Z AUTO 15004KT 8SM UP OVC010 01/01 A3007 RMK AO2 RAB12E22 CIG 006V013 P0001 T00110006
KMVL 140454Z AUTO VRB03KT 5SM UP BR OVC008 01/01 A3009 RMK AO2 UPB37RAB39E48 CIG 006V012 SLP198 P0000 T00110006 400281072
KMVL 140354Z AUTO 00000KT 7SM OVC008 01/00 A3013 RMK AO2 RAB0258E07 CIG 006V011 SLP211 P0000 I1000 T00110000
KMVL 140324Z AUTO 13004KT 8SM BKN009 BKN014 OVC023 01/00 A3015 RMK AO2 RAB0258E07 CIG 006V010 P0000 T00110000
KMVL 140315Z AUTO 14004KT 9SM SCT009 BKN015 OVC023 01/00 A3015 RMK AO2 RAB0258E07 P0000 T00110000
KMVL 140310Z AUTO 15004KT 10SM BKN010 BKN015 OVC023 01/00 A3015 RMK AO2 RAB0258E07 P0000 T00110000
KMVL 140301Z AUTO 15003KT 10SM -RA BKN009 BKN015 OVC022 01/00 A3016 RMK AO2 RAB0258 P0000 T00110000
KMVL 140254Z AUTO 15003KT 10SM FEW009 BKN013 OVC022 01/00 A3016 RMK AO2 RAE0157B33E54UPB02E12B28E33 SLP224 P0000 60002 I3000 T00110000 58023
KMVL 140154Z AUTO 17003KT 10SM -RA FEW009 BKN024 OVC029 01/M01 A3019 RMK AO2 UPB12E26 SLP234 P0001 I1000 T00061006
KMVL 140136Z AUTO 16003KT 10SM -RA SCT009 BKN026 OVC031 01/M01 A3019 RMK AO2 UPB12E26 P0000 I1000 T00061006
KMVL 140054Z AUTO 17004KT 6SM -RA BR OVC022 01/M01 A3021 RMK AO2 UPB17E27B44E49RAB27E30B49 SLP243 P0001 T00061006
KMVL 132354Z AUTO 00000KT 10SM OVC024 01/M01 A3023 RMK AO2 UPB44E53SNE09 SLP249 P0000 60000 T00061006 10028 20006 56010
KMVL 132254Z AUTO 00000KT 4SM -SN BR OVC023 01/M02 A3024 RMK AO2 SNB28 SLP250 P0000 T00061017
KMVL 132154Z AUTO 00000KT 10SM BKN024 OVC031 02/M03 A3025 RMK AO2 SLP255 T00171028
KMVL 132132Z AUTO 20003KT 10SM BKN028 OVC033 02/M03 A3026 RMK AO2 T00171028
KMVL 132054Z AUTO 00000KT 10SM OVC034 02/M03 A3026 RMK AO2 SLP258 T00171028 56014
KMVL 131954Z AUTO 00000KT 10SM OVC038 02/M03 A3027 RMK AO2 SLP262 T00221033
KMVL 131854Z AUTO 17004KT 10SM OVC048 02/M04 A3028 RMK AO2 SLP264 T00221039
KMVL 131754Z AUTO 20006KT 10SM OVC047 03/M04 A3030 RMK AO2 SLP272 T00281044 10028 21072 58027
KMVL 131554Z AUTO 00000KT 10SM OVC041 01/M07 A3037 RMK AO2 SLP297 T00061072
KMVL 131454Z AUTO 09004KT 10SM FEW042 M02/M09 A3038 RMK AO2 SLP302 T10171089 58003
KMVL 131354Z AUTO 00000KT 10SM CLR M03/M10 A3040 RMK AO2 SLP308 T10331100
KMVL 131254Z AUTO 00000KT 10SM CLR M07/M11 A3040 RMK AO2 SLP309 T10671111
KMVL 131154Z AUTO 00000KT 10SM CLR M07/M11 A3039 RMK AO2 SLP307 T10671111 11039 21067 55008
KMVL 131054Z AUTO 17004KT 10SM CLR M04/M12 A3039 RMK AO2 SLP306 T10441117
KMVL 130954Z AUTO 16008KT 10SM BKN100 M04/M11 A3039 RMK AO2 SLP306 T10391111
KMVL 130854Z AUTO 14004KT 10SM OVC110 M04/M11 A3042 RMK AO2 SLP313 T10391111 58021
KMVL 130754Z AUTO 15007KT 10SM OVC090 M04/M11 A3045 RMK AO2 SLP325 T10391111
KMVL 130654Z AUTO 17005KT 10SM OVC100 M04/M11 A3047 RMK AO2 SLP331 T10441111
KMVL 130554Z AUTO 14004KT 10SM BKN100 OVC120 M05/M11 A3048 RMK AO2 SLP335 T10501111 11050 21100 58021
KMVL 130454Z AUTO 17004KT 10SM BKN090 BKN120 M06/M11 A3050 RMK AO2 SLP343 T10561111 410391100
KMVL 130354Z AUTO 00000KT 10SM OVC090 M07/M10 A3052 RMK AO2 SLP350 T10721100
KMVL 130254Z AUTO 00000KT 10SM FEW070 OVC090 M08/M11 A3054 RMK AO2 SLP358 T10781106 58017